sensor_id;sensor_type;location;lat;lon;timestamp;pressure;altitude;pressure_sealevel;temperature;humidity
20696;BME280;10507;52.754;13.040;2023-06-04T00:01:04;101559.38;;;9.50;74.96
20696;BME280;10507;52.754;13.040;2023-06-04T00:03:42;101584.28;;;9.49;75.13
20696;BME280;10507;52.754;13.040;2023-06-04T00:06:11;101581.88;;;9.42;75.35
20696;BME280;10507;52.754;13.040;2023-06-04T00:08:39;101575.72;;;9.40;75.08
20696;BME280;10507;52.754;13.040;2023-06-04T00:11:07;101584.03;;;9.29;76.66
20696;BME280;10507;52.754;13.040;2023-06-04T00:13:36;101603.56;;;9.28;76.60
20696;BME280;10507;52.754;13.040;2023-06-04T00:16:04;101592.16;;;9.24;76.18
20696;BME280;10507;52.754;13.040;2023-06-04T00:18:32;101567.34;;;9.22;76.20
20696;BME280;10507;52.754;13.040;2023-06-04T00:21:00;101579.03;;;9.16;76.56
20696;BME280;10507;52.754;13.040;2023-06-04T00:23:28;101573.63;;;9.20;77.02
20696;BME280;10507;52.754;13.040;2023-06-04T00:25:56;101567.50;;;9.16;76.93
20696;BME280;10507;52.754;13.040;2023-06-04T00:28:24;101567.50;;;9.16;76.29
20696;BME280;10507;52.754;13.040;2023-06-04T00:30:53;101552.38;;;9.16;76.30
20696;BME280;10507;52.754;13.040;2023-06-04T00:33:21;101560.38;;;9.16;76.34
20696;BME280;10507;52.754;13.040;2023-06-04T00:35:49;101566.72;;;9.12;76.87
20696;BME280;10507;52.754;13.040;2023-06-04T00:38:17;101569.44;;;9.11;76.78
20696;BME280;10507;52.754;13.040;2023-06-04T00:40:45;101586.41;;;9.08;77.57
20696;BME280;10507;52.754;13.040;2023-06-04T00:43:13;101575.94;;;9.01;77.76
20696;BME280;10507;52.754;13.040;2023-06-04T00:45:41;101582.22;;;8.98;78.63
20696;BME280;10507;52.754;13.040;2023-06-04T00:48:11;101577.16;;;8.89;77.83
20696;BME280;10507;52.754;13.040;2023-06-04T00:50:39;101578.25;;;8.82;79.02
20696;BME280;10507;52.754;13.040;2023-06-04T00:53:07;101588.91;;;8.82;79.52
20696;BME280;10507;52.754;13.040;2023-06-04T00:55:35;101585.63;;;8.72;80.06
20696;BME280;10507;52.754;13.040;2023-06-04T00:58:06;101570.03;;;8.58;79.70
20696;BME280;10507;52.754;13.040;2023-06-04T01:00:36;101600.13;;;8.60;79.89
20696;BME280;10507;52.754;13.040;2023-06-04T01:03:07;101586.00;;;8.58;80.60
20696;BME280;10507;52.754;13.040;2023-06-04T01:05:43;101592.38;;;8.52;80.27
20696;BME280;10507;52.754;13.040;2023-06-04T01:08:15;101599.56;;;8.47;80.55
20696;BME280;10507;52.754;13.040;2023-06-04T01:10:50;101624.56;;;8.42;82.59
20696;BME280;10507;52.754;13.040;2023-06-04T01:13:18;101602.66;;;8.30;81.95
20696;BME280;10507;52.754;13.040;2023-06-04T01:15:49;101597.47;;;8.24;81.95
20696;BME280;10507;52.754;13.040;2023-06-04T01:18:20;101585.09;;;8.23;82.23
20696;BME280;10507;52.754;13.040;2023-06-04T01:20:58;101574.50;;;8.20;82.52
20696;BME280;10507;52.754;13.040;2023-06-04T01:23:33;101574.59;;;8.17;82.50
20696;BME280;10507;52.754;13.040;2023-06-04T01:26:08;101585.22;;;8.19;81.87
20696;BME280;10507;52.754;13.040;2023-06-04T01:28:37;101587.16;;;8.12;82.08
20696;BME280;10507;52.754;13.040;2023-06-04T01:31:06;101585.38;;;8.11;82.67
20696;BME280;10507;52.754;13.040;2023-06-04T01:33:36;101584.63;;;8.07;82.51
20696;BME280;10507;52.754;13.040;2023-06-04T01:36:06;101599.63;;;8.10;82.43
20696;BME280;10507;52.754;13.040;2023-06-04T01:38:36;101588.16;;;8.06;82.99
20696;BME280;10507;52.754;13.040;2023-06-04T01:41:04;101597.06;;;8.05;83.26
20696;BME280;10507;52.754;13.040;2023-06-04T01:43:33;101604.25;;;8.00;83.93
20696;BME280;10507;52.754;13.040;2023-06-04T01:46:05;101584.78;;;8.00;83.14
20696;BME280;10507;52.754;13.040;2023-06-04T01:48:33;101584.75;;;8.01;83.69
20696;BME280;10507;52.754;13.040;2023-06-04T01:51:01;101567.03;;;8.00;83.66
20696;BME280;10507;52.754;13.040;2023-06-04T01:53:31;101576.81;;;8.00;82.93
20696;BME280;10507;52.754;13.040;2023-06-04T01:55:59;101568.06;;;7.95;83.15
20696;BME280;10507;52.754;13.040;2023-06-04T01:58:27;101588.28;;;8.02;83.51
20696;BME280;10507;52.754;13.040;2023-06-04T02:00:56;101575.22;;;7.93;84.12
20696;BME280;10507;52.754;13.040;2023-06-04T02:03:27;101584.25;;;7.85;84.43
20696;BME280;10507;52.754;13.040;2023-06-04T02:05:55;101574.63;;;7.80;84.13
20696;BME280;10507;52.754;13.040;2023-06-04T02:08:22;101572.88;;;7.79;84.61
20696;BME280;10507;52.754;13.040;2023-06-04T02:10:53;101579.19;;;7.73;84.82
20696;BME280;10507;52.754;13.040;2023-06-04T02:13:21;101587.25;;;7.70;85.21
20696;BME280;10507;52.754;13.040;2023-06-04T02:15:49;101576.75;;;7.64;85.59
20696;BME280;10507;52.754;13.040;2023-06-04T02:18:19;101575.97;;;7.60;85.74
20696;BME280;10507;52.754;13.040;2023-06-04T02:20:49;101595.50;;;7.58;85.82
20696;BME280;10507;52.754;13.040;2023-06-04T02:23:18;101598.44;;;7.45;86.63
20696;BME280;10507;52.754;13.040;2023-06-04T02:25:47;101615.38;;;7.40;87.67
20696;BME280;10507;52.754;13.040;2023-06-04T02:28:17;101606.63;;;7.36;88.08
20696;BME280;10507;52.754;13.040;2023-06-04T02:30:45;101576.94;;;7.16;87.85
20696;BME280;10507;52.754;13.040;2023-06-04T02:33:13;101572.78;;;7.02;87.78
20696;BME280;10507;52.754;13.040;2023-06-04T02:35:42;101570.50;;;6.84;88.38
20696;BME280;10507;52.754;13.040;2023-06-04T02:38:10;101584.78;;;6.77;88.26
20696;BME280;10507;52.754;13.040;2023-06-04T02:40:38;101585.81;;;6.70;88.67
20696;BME280;10507;52.754;13.040;2023-06-04T02:43:06;101596.53;;;6.63;89.17
20696;BME280;10507;52.754;13.040;2023-06-04T02:45:36;101606.19;;;6.68;89.01
20696;BME280;10507;52.754;13.040;2023-06-04T02:48:04;101613.88;;;6.83;89.42
20696;BME280;10507;52.754;13.040;2023-06-04T02:50:32;101604.09;;;6.85;89.67
20696;BME280;10507;52.754;13.040;2023-06-04T02:53:00;101625.94;;;6.99;89.57
20696;BME280;10507;52.754;13.040;2023-06-04T02:55:27;101610.75;;;7.06;89.01
20696;BME280;10507;52.754;13.040;2023-06-04T02:57:55;101616.91;;;7.08;89.55
20696;BME280;10507;52.754;13.040;2023-06-04T03:00:24;101622.13;;;7.14;89.89
20696;BME280;10507;52.754;13.040;2023-06-04T03:02:53;101608.81;;;7.16;89.54
20696;BME280;10507;52.754;13.040;2023-06-04T03:05:28;101599.91;;;7.17;89.16
20696;BME280;10507;52.754;13.040;2023-06-04T03:07:57;101595.53;;;7.16;89.63
20696;BME280;10507;52.754;13.040;2023-06-04T03:10:26;101610.72;;;7.07;89.85
20696;BME280;10507;52.754;13.040;2023-06-04T03:12:53;101614.50;;;6.96;90.75
20696;BME280;10507;52.754;13.040;2023-06-04T03:15:21;101627.78;;;6.97;91.38
20696;BME280;10507;52.754;13.040;2023-06-04T03:17:49;101628.69;;;6.95;90.89
20696;BME280;10507;52.754;13.040;2023-06-04T03:20:19;101605.78;;;6.89;90.57
20696;BME280;10507;52.754;13.040;2023-06-04T03:22:51;101600.59;;;6.83;90.33
20696;BME280;10507;52.754;13.040;2023-06-04T03:25:19;101596.25;;;6.79;90.25
20696;BME280;10507;52.754;13.040;2023-06-04T03:27:47;101601.59;;;6.77;90.39
20696;BME280;10507;52.754;13.040;2023-06-04T03:30:15;101613.06;;;6.79;90.80
20696;BME280;10507;52.754;13.040;2023-06-04T03:32:42;101622.75;;;6.82;90.46
20696;BME280;10507;52.754;13.040;2023-06-04T03:35:12;101618.22;;;6.87;91.04
20696;BME280;10507;52.754;13.040;2023-06-04T03:37:43;101625.16;;;6.94;90.87
20696;BME280;10507;52.754;13.040;2023-06-04T03:40:12;101626.19;;;6.87;91.07
20696;BME280;10507;52.754;13.040;2023-06-04T03:42:40;101626.19;;;6.85;91.23
20696;BME280;10507;52.754;13.040;2023-06-04T03:45:09;101639.47;;;6.87;91.78
20696;BME280;10507;52.754;13.040;2023-06-04T03:47:38;101639.38;;;6.90;91.63
20696;BME280;10507;52.754;13.040;2023-06-04T03:50:07;101631.41;;;6.90;92.02
20696;BME280;10507;52.754;13.040;2023-06-04T03:52:35;101634.94;;;6.92;92.34
20696;BME280;10507;52.754;13.040;2023-06-04T03:55:05;101630.47;;;6.94;91.87
20696;BME280;10507;52.754;13.040;2023-06-04T03:57:33;101626.00;;;6.96;91.50
20696;BME280;10507;52.754;13.040;2023-06-04T04:00:02;101622.38;;;7.02;91.79
20696;BME280;10507;52.754;13.040;2023-06-04T04:02:30;101624.00;;;7.07;91.09
20696;BME280;10507;52.754;13.040;2023-06-04T04:04:59;101625.69;;;7.13;90.80
20696;BME280;10507;52.754;13.040;2023-06-04T04:07:27;101621.16;;;7.17;90.89
20696;BME280;10507;52.754;13.040;2023-06-04T04:09:55;101620.22;;;7.21;90.59
20696;BME280;10507;52.754;13.040;2023-06-04T04:12:25;101620.84;;;7.32;91.19
20696;BME280;10507;52.754;13.040;2023-06-04T04:14:53;101630.41;;;7.42;90.88
20696;BME280;10507;52.754;13.040;2023-06-04T04:17:21;101622.16;;;7.55;91.38
20696;BME280;10507;52.754;13.040;2023-06-04T04:19:49;101625.44;;;7.66;90.79
20696;BME280;10507;52.754;13.040;2023-06-04T04:22:17;101617.38;;;7.70;90.74
20696;BME280;10507;52.754;13.040;2023-06-04T04:24:45;101617.22;;;7.78;91.20
20696;BME280;10507;52.754;13.040;2023-06-04T04:27:13;101635.44;;;7.94;91.04
20696;BME280;10507;52.754;13.040;2023-06-04T04:29:43;101621.50;;;8.21;89.55
20696;BME280;10507;52.754;13.040;2023-06-04T04:32:14;101589.22;;;8.35;88.65
20696;BME280;10507;52.754;13.040;2023-06-04T04:34:50;101605.84;;;8.45;89.40
20696;BME280;10507;52.754;13.040;2023-06-04T04:37:19;101605.69;;;8.51;89.67
20696;BME280;10507;52.754;13.040;2023-06-04T04:39:49;101623.00;;;8.67;90.04
20696;BME280;10507;52.754;13.040;2023-06-04T04:42:19;101631.69;;;9.08;88.22
20696;BME280;10507;52.754;13.040;2023-06-04T04:44:48;101587.84;;;9.48;86.73
20696;BME280;10507;52.754;13.040;2023-06-04T04:47:16;101586.69;;;9.87;85.90
20696;BME280;10507;52.754;13.040;2023-06-04T04:49:44;101604.97;;;10.79;83.22
20696;BME280;10507;52.754;13.040;2023-06-04T04:52:16;101553.22;;;12.18;79.03
20696;BME280;10507;52.754;13.040;2023-06-04T04:54:44;101428.44;;;13.31;73.70
20696;BME280;10507;52.754;13.040;2023-06-04T04:57:11;101419.41;;;14.21;71.05
20696;BME280;10507;52.754;13.040;2023-06-04T04:59:40;101358.88;;;15.12;67.72
20696;BME280;10507;52.754;13.040;2023-06-04T05:02:09;101351.28;;;15.65;65.97
20696;BME280;10507;52.754;13.040;2023-06-04T05:04:37;101264.91;;;15.84;65.19
20696;BME280;10507;52.754;13.040;2023-06-04T05:07:06;101332.63;;;16.49;63.89
20696;BME280;10507;52.754;13.040;2023-06-04T05:09:33;101308.94;;;16.96;62.35
20696;BME280;10507;52.754;13.040;2023-06-04T05:12:02;101264.63;;;17.40;60.94
20696;BME280;10507;52.754;13.040;2023-06-04T05:14:30;101174.97;;;17.35;60.13
20696;BME280;10507;52.754;13.040;2023-06-04T05:16:58;101152.50;;;17.21;60.46
20696;BME280;10507;52.754;13.040;2023-06-04T05:19:27;101242.47;;;17.73;59.96
20696;BME280;10507;52.754;13.040;2023-06-04T05:21:55;101275.44;;;18.30;58.52
20696;BME280;10507;52.754;13.040;2023-06-04T05:24:23;101254.28;;;18.72;57.71
20696;BME280;10507;52.754;13.040;2023-06-04T05:26:51;101221.50;;;19.00;56.54
20696;BME280;10507;52.754;13.040;2023-06-04T05:29:19;101293.56;;;19.61;56.28
20696;BME280;10507;52.754;13.040;2023-06-04T05:31:47;101196.03;;;19.49;55.95
20696;BME280;10507;52.754;13.040;2023-06-04T05:34:15;101226.00;;;19.93;55.08
20696;BME280;10507;52.754;13.040;2023-06-04T05:36:45;101198.91;;;20.04;54.96
20696;BME280;10507;52.754;13.040;2023-06-04T05:39:13;101239.06;;;20.22;55.13
20696;BME280;10507;52.754;13.040;2023-06-04T05:41:42;101113.81;;;19.84;54.84
20696;BME280;10507;52.754;13.040;2023-06-04T05:44:10;101232.75;;;20.32;54.62
20696;BME280;10507;52.754;13.040;2023-06-04T05:46:37;101143.44;;;20.63;53.64
20696;BME280;10507;52.754;13.040;2023-06-04T05:49:05;101192.34;;;21.26;52.88
20696;BME280;10507;52.754;13.040;2023-06-04T05:51:33;101187.31;;;21.22;52.95
20696;BME280;10507;52.754;13.040;2023-06-04T05:54:03;101082.00;;;21.04;52.82
20696;BME280;10507;52.754;13.040;2023-06-04T05:56:31;101207.00;;;21.56;53.26
20696;BME280;10507;52.754;13.040;2023-06-04T05:58:59;101119.81;;;21.69;52.11
20696;BME280;10507;52.754;13.040;2023-06-04T06:01:27;101113.63;;;21.57;51.81
20696;BME280;10507;52.754;13.040;2023-06-04T06:03:56;101123.47;;;20.85;53.39
20696;BME280;10507;52.754;13.040;2023-06-04T06:06:24;101120.91;;;21.35;51.91
20696;BME280;10507;52.754;13.040;2023-06-04T06:08:52;101205.31;;;22.26;51.57
20696;BME280;10507;52.754;13.040;2023-06-04T06:11:22;101173.44;;;22.48;50.96
20696;BME280;10507;52.754;13.040;2023-06-04T06:13:50;101233.47;;;22.75;51.58
20696;BME280;10507;52.754;13.040;2023-06-04T06:16:18;101130.16;;;22.83;49.80
20696;BME280;10507;52.754;13.040;2023-06-04T06:18:46;101178.16;;;23.23;49.28
20696;BME280;10507;52.754;13.040;2023-06-04T06:21:14;101089.19;;;22.66;49.35
20696;BME280;10507;52.754;13.040;2023-06-04T06:23:42;101160.22;;;23.31;48.61
20696;BME280;10507;52.754;13.040;2023-06-04T06:26:10;101050.63;;;22.90;48.61
20696;BME280;10507;52.754;13.040;2023-06-04T06:28:40;101171.25;;;23.39;48.67
20696;BME280;10507;52.754;13.040;2023-06-04T06:31:08;101211.66;;;24.00;48.35
20696;BME280;10507;52.754;13.040;2023-06-04T06:33:36;101165.50;;;24.35;47.17
20696;BME280;10507;52.754;13.040;2023-06-04T06:36:08;101133.00;;;24.41;46.89
20696;BME280;10507;52.754;13.040;2023-06-04T06:38:38;101139.88;;;24.45;46.76
20696;BME280;10507;52.754;13.040;2023-06-04T06:41:06;101043.84;;;24.32;46.28
20696;BME280;10507;52.754;13.040;2023-06-04T06:43:35;101127.34;;;24.53;46.88
20696;BME280;10507;52.754;13.040;2023-06-04T06:46:05;101259.00;;;25.72;46.39
20696;BME280;10507;52.754;13.040;2023-06-04T06:48:33;101016.75;;;24.48;45.90
20696;BME280;10507;52.754;13.040;2023-06-04T06:51:01;101169.66;;;25.28;45.92
20696;BME280;10507;52.754;13.040;2023-06-04T06:53:29;101140.50;;;25.71;44.65
20696;BME280;10507;52.754;13.040;2023-06-04T06:55:57;101016.97;;;25.34;44.25
20696;BME280;10507;52.754;13.040;2023-06-04T06:58:25;101072.09;;;25.29;43.56
20696;BME280;10507;52.754;13.040;2023-06-04T07:00:53;101075.78;;;25.46;43.26
20696;BME280;10507;52.754;13.040;2023-06-04T07:03:24;100992.63;;;25.65;41.66
20696;BME280;10507;52.754;13.040;2023-06-04T07:05:53;100963.03;;;25.60;41.23
20696;BME280;10507;52.754;13.040;2023-06-04T07:08:21;101022.34;;;26.10;41.49
20696;BME280;10507;52.754;13.040;2023-06-04T07:10:49;100873.16;;;25.06;41.45
20696;BME280;10507;52.754;13.040;2023-06-04T07:13:17;101129.50;;;26.48;40.93
20696;BME280;10507;52.754;13.040;2023-06-04T07:15:44;100907.84;;;25.57;40.04
20696;BME280;10507;52.754;13.040;2023-06-04T07:18:12;101067.69;;;25.70;41.99
20696;BME280;10507;52.754;13.040;2023-06-04T07:20:42;101023.88;;;26.54;39.08
20696;BME280;10507;52.754;13.040;2023-06-04T07:23:09;101024.41;;;26.66;39.58
20696;BME280;10507;52.754;13.040;2023-06-04T07:25:37;100940.22;;;26.35;39.20
20696;BME280;10507;52.754;13.040;2023-06-04T07:28:05;100909.47;;;25.33;40.19
20696;BME280;10507;52.754;13.040;2023-06-04T07:30:33;100937.69;;;25.42;40.09
20696;BME280;10507;52.754;13.040;2023-06-04T07:33:01;101114.75;;;26.49;40.62
20696;BME280;10507;52.754;13.040;2023-06-04T07:35:29;101066.50;;;26.48;40.61
20696;BME280;10507;52.754;13.040;2023-06-04T07:37:58;101083.78;;;26.32;41.29
20696;BME280;10507;52.754;13.040;2023-06-04T07:40:26;101092.50;;;27.02;40.19
20696;BME280;10507;52.754;13.040;2023-06-04T07:42:54;101136.47;;;27.57;39.49
20696;BME280;10507;52.754;13.040;2023-06-04T07:45:23;100949.44;;;26.67;37.76
20696;BME280;10507;52.754;13.040;2023-06-04T07:48:00;100841.22;;;25.90;36.56
20696;BME280;10507;52.754;13.040;2023-06-04T07:50:28;100939.34;;;25.93;38.02
20696;BME280;10507;52.754;13.040;2023-06-04T07:53:01;100993.59;;;26.47;37.21
20696;BME280;10507;52.754;13.040;2023-06-04T07:55:29;100920.72;;;25.89;37.84
20696;BME280;10507;52.754;13.040;2023-06-04T07:57:58;100799.06;;;25.09;37.16
20696;BME280;10507;52.754;13.040;2023-06-04T08:00:28;100992.03;;;25.87;37.96
20696;BME280;10507;52.754;13.040;2023-06-04T08:02:55;100969.63;;;26.25;36.14
20696;BME280;10507;52.754;13.040;2023-06-04T08:05:23;100877.63;;;25.99;36.30
20696;BME280;10507;52.754;13.040;2023-06-04T08:07:52;100947.38;;;26.69;35.70
20696;BME280;10507;52.754;13.040;2023-06-04T08:10:22;101058.59;;;27.27;36.12
20696;BME280;10507;52.754;13.040;2023-06-04T08:12:50;100936.66;;;26.99;35.56
20696;BME280;10507;52.754;13.040;2023-06-04T08:15:18;100902.66;;;27.16;34.68
20696;BME280;10507;52.754;13.040;2023-06-04T08:17:46;100872.72;;;26.75;35.15
20696;BME280;10507;52.754;13.040;2023-06-04T08:20:14;100917.78;;;26.64;35.45
20696;BME280;10507;52.754;13.040;2023-06-04T08:22:42;100840.50;;;26.13;35.59
20696;BME280;10507;52.754;13.040;2023-06-04T08:25:10;100801.69;;;25.60;36.15
20696;BME280;10507;52.754;13.040;2023-06-04T08:27:41;100882.34;;;25.48;36.70
20696;BME280;10507;52.754;13.040;2023-06-04T08:30:09;100783.59;;;24.33;37.21
20696;BME280;10507;52.754;13.040;2023-06-04T08:32:37;100963.59;;;25.21;37.89
20696;BME280;10507;52.754;13.040;2023-06-04T08:35:07;100777.28;;;24.67;36.59
20696;BME280;10507;52.754;13.040;2023-06-04T08:37:35;100879.03;;;24.77;37.24
20696;BME280;10507;52.754;13.040;2023-06-04T08:40:04;100930.72;;;25.47;36.59
20696;BME280;10507;52.754;13.040;2023-06-04T08:42:40;100791.25;;;24.30;36.71
20696;BME280;10507;52.754;13.040;2023-06-04T08:45:10;100827.13;;;24.17;37.11
20696;BME280;10507;52.754;13.040;2023-06-04T08:47:44;100920.06;;;24.59;37.21
20696;BME280;10507;52.754;13.040;2023-06-04T08:50:12;100909.88;;;24.69;37.41
20696;BME280;10507;52.754;13.040;2023-06-04T08:52:44;100853.56;;;24.16;37.33
20696;BME280;10507;52.754;13.040;2023-06-04T08:55:13;100941.19;;;24.31;38.57
20696;BME280;10507;52.754;13.040;2023-06-04T08:57:43;100882.56;;;24.43;37.44
20696;BME280;10507;52.754;13.040;2023-06-04T09:00:12;100840.56;;;23.84;38.12
20696;BME280;10507;52.754;13.040;2023-06-04T09:02:40;100817.97;;;23.56;38.41
20696;BME280;10507;52.754;13.040;2023-06-04T09:05:09;100782.88;;;23.35;37.88
20696;BME280;10507;52.754;13.040;2023-06-04T09:07:39;100724.78;;;22.80;37.82
20696;BME280;10507;52.754;13.040;2023-06-04T09:10:09;100803.06;;;22.96;38.05
20696;BME280;10507;52.754;13.040;2023-06-04T09:12:43;100760.25;;;22.89;37.54
20696;BME280;10507;52.754;13.040;2023-06-04T09:15:13;100762.13;;;22.88;37.20
20696;BME280;10507;52.754;13.040;2023-06-04T09:17:41;100761.28;;;22.60;38.15
20696;BME280;10507;52.754;13.040;2023-06-04T09:20:18;100876.63;;;22.87;39.32
20696;BME280;10507;52.754;13.040;2023-06-04T09:22:46;100842.25;;;22.58;38.88
20696;BME280;10507;52.754;13.040;2023-06-04T09:25:22;100868.28;;;22.70;39.62
20696;BME280;10507;52.754;13.040;2023-06-04T09:27:53;100961.31;;;23.31;39.52
20696;BME280;10507;52.754;13.040;2023-06-04T09:30:22;100837.75;;;22.67;38.79
20696;BME280;10507;52.754;13.040;2023-06-04T09:32:51;100823.03;;;22.59;38.51
20696;BME280;10507;52.754;13.040;2023-06-04T09:35:20;100854.13;;;22.57;38.86
20696;BME280;10507;52.754;13.040;2023-06-04T09:37:52;100822.78;;;22.53;38.28
20696;BME280;10507;52.754;13.040;2023-06-04T09:40:20;100860.81;;;23.00;37.20
20696;BME280;10507;52.754;13.040;2023-06-04T09:42:50;100922.25;;;23.40;37.10
20696;BME280;10507;52.754;13.040;2023-06-04T09:45:29;100899.94;;;23.27;37.69
20696;BME280;10507;52.754;13.040;2023-06-04T09:47:57;100891.91;;;23.07;38.36
20696;BME280;10507;52.754;13.040;2023-06-04T09:50:26;100717.75;;;22.05;37.59
20696;BME280;10507;52.754;13.040;2023-06-04T09:52:55;100840.84;;;22.54;38.18
20696;BME280;10507;52.754;13.040;2023-06-04T09:55:23;100857.94;;;22.74;37.89
20696;BME280;10507;52.754;13.040;2023-06-04T09:57:52;100881.31;;;23.04;37.72
20696;BME280;10507;52.754;13.040;2023-06-04T10:00:23;100827.81;;;22.75;37.51
20696;BME280;10507;52.754;13.040;2023-06-04T10:02:56;100853.25;;;22.66;38.76
20696;BME280;10507;52.754;13.040;2023-06-04T10:05:24;100907.88;;;22.92;38.51
20696;BME280;10507;52.754;13.040;2023-06-04T10:07:54;100870.88;;;22.99;37.41
20696;BME280;10507;52.754;13.040;2023-06-04T10:10:25;100942.38;;;23.29;38.40
20696;BME280;10507;52.754;13.040;2023-06-04T10:13:00;100972.16;;;23.58;38.02
20696;BME280;10507;52.754;13.040;2023-06-04T10:15:29;100958.88;;;23.55;37.93
20696;BME280;10507;52.754;13.040;2023-06-04T10:18:02;100818.75;;;22.84;37.78
20696;BME280;10507;52.754;13.040;2023-06-04T10:20:31;100866.06;;;22.83;38.39
20696;BME280;10507;52.754;13.040;2023-06-04T10:23:00;100875.13;;;22.74;38.81
20696;BME280;10507;52.754;13.040;2023-06-04T10:25:28;100829.59;;;22.39;38.80
20696;BME280;10507;52.754;13.040;2023-06-04T10:27:56;100828.94;;;22.55;38.30
20696;BME280;10507;52.754;13.040;2023-06-04T10:30:24;100826.72;;;22.68;37.36
20696;BME280;10507;52.754;13.040;2023-06-04T10:32:53;100766.88;;;22.40;37.16
20696;BME280;10507;52.754;13.040;2023-06-04T10:35:30;100829.13;;;22.44;38.20
20696;BME280;10507;52.754;13.040;2023-06-04T10:38:09;100885.63;;;22.59;38.46
20696;BME280;10507;52.754;13.040;2023-06-04T10:40:37;100848.38;;;22.60;37.96
20696;BME280;10507;52.754;13.040;2023-06-04T10:43:06;100991.41;;;23.01;39.45
20696;BME280;10507;52.754;13.040;2023-06-04T10:45:35;100955.84;;;23.31;38.34
20696;BME280;10507;52.754;13.040;2023-06-04T10:48:05;100978.09;;;23.54;38.39
20696;BME280;10507;52.754;13.040;2023-06-04T10:50:35;100951.50;;;23.38;38.15
20696;BME280;10507;52.754;13.040;2023-06-04T10:53:03;100815.53;;;22.99;36.88
20696;BME280;10507;52.754;13.040;2023-06-04T10:55:32;100873.81;;;22.78;37.80
20696;BME280;10507;52.754;13.040;2023-06-04T10:58:01;100856.25;;;22.91;37.27
20696;BME280;10507;52.754;13.040;2023-06-04T11:00:36;100893.13;;;22.85;38.07
20696;BME280;10507;52.754;13.040;2023-06-04T11:03:05;100849.41;;;22.87;37.24
20696;BME280;10507;52.754;13.040;2023-06-04T11:05:37;100861.63;;;22.82;37.78
20696;BME280;10507;52.754;13.040;2023-06-04T11:08:06;100884.34;;;23.01;37.60
20696;BME280;10507;52.754;13.040;2023-06-04T11:10:35;100902.69;;;23.27;37.45
20696;BME280;10507;52.754;13.040;2023-06-04T11:13:04;100932.16;;;23.41;37.61
20696;BME280;10507;52.754;13.040;2023-06-04T11:15:39;100924.81;;;23.41;37.70
20696;BME280;10507;52.754;13.040;2023-06-04T11:18:12;100886.25;;;23.18;37.68
20696;BME280;10507;52.754;13.040;2023-06-04T11:20:43;100861.03;;;23.16;37.44
20696;BME280;10507;52.754;13.040;2023-06-04T11:23:12;100876.59;;;22.96;38.05
20696;BME280;10507;52.754;13.040;2023-06-04T11:25:40;100950.19;;;23.42;38.13
20696;BME280;10507;52.754;13.040;2023-06-04T11:28:14;100956.63;;;23.69;37.59
20696;BME280;10507;52.754;13.040;2023-06-04T11:30:43;100975.03;;;23.84;37.93
20696;BME280;10507;52.754;13.040;2023-06-04T11:33:10;100863.44;;;23.19;37.92
20696;BME280;10507;52.754;13.040;2023-06-04T11:35:43;100780.28;;;22.52;38.02
20696;BME280;10507;52.754;13.040;2023-06-04T11:38:12;100875.63;;;22.88;38.34
20696;BME280;10507;52.754;13.040;2023-06-04T11:40:40;100910.44;;;22.94;38.90
20696;BME280;10507;52.754;13.040;2023-06-04T11:43:10;100886.22;;;22.91;38.32
20696;BME280;10507;52.754;13.040;2023-06-04T11:45:38;100830.88;;;22.72;37.70
20696;BME280;10507;52.754;13.040;2023-06-04T11:48:10;100892.91;;;23.06;37.98
20696;BME280;10507;52.754;13.040;2023-06-04T11:50:38;100872.00;;;22.97;37.92
20696;BME280;10507;52.754;13.040;2023-06-04T11:53:08;100938.06;;;22.99;39.41
20696;BME280;10507;52.754;13.040;2023-06-04T11:55:36;100838.63;;;22.67;38.69
20696;BME280;10507;52.754;13.040;2023-06-04T11:58:05;100833.84;;;22.51;38.04
20696;BME280;10507;52.754;13.040;2023-06-04T12:00:34;100856.75;;;22.49;38.66
20696;BME280;10507;52.754;13.040;2023-06-04T12:03:07;100971.31;;;23.02;39.62
20696;BME280;10507;52.754;13.040;2023-06-04T12:05:35;100829.50;;;22.58;38.70
20696;BME280;10507;52.754;13.040;2023-06-04T12:08:04;100865.16;;;22.65;38.75
20696;BME280;10507;52.754;13.040;2023-06-04T12:10:38;100865.81;;;22.77;38.11
20696;BME280;10507;52.754;13.040;2023-06-04T12:13:06;100844.16;;;22.75;37.79
20696;BME280;10507;52.754;13.040;2023-06-04T12:15:34;100926.91;;;23.02;38.47
20696;BME280;10507;52.754;13.040;2023-06-04T12:18:02;100909.91;;;23.18;38.04
20696;BME280;10507;52.754;13.040;2023-06-04T12:20:34;100954.44;;;23.27;38.69
20696;BME280;10507;52.754;13.040;2023-06-04T12:23:03;100926.41;;;23.16;38.84
20696;BME280;10507;52.754;13.040;2023-06-04T12:25:33;100908.66;;;23.12;38.54
20696;BME280;10507;52.754;13.040;2023-06-04T12:28:03;100946.72;;;23.22;38.86
20696;BME280;10507;52.754;13.040;2023-06-04T12:30:38;100889.97;;;23.17;37.97
20696;BME280;10507;52.754;13.040;2023-06-04T12:33:06;100927.72;;;23.12;39.01
20696;BME280;10507;52.754;13.040;2023-06-04T12:35:34;100951.81;;;23.35;38.92
20696;BME280;10507;52.754;13.040;2023-06-04T12:38:03;100824.50;;;22.81;38.24
20696;BME280;10507;52.754;13.040;2023-06-04T12:40:32;100931.91;;;22.97;39.46
20696;BME280;10507;52.754;13.040;2023-06-04T12:43:00;100856.25;;;22.91;38.01
20696;BME280;10507;52.754;13.040;2023-06-04T12:45:29;100840.19;;;22.97;37.62
20696;BME280;10507;52.754;13.040;2023-06-04T12:47:57;100844.19;;;23.03;37.57
20696;BME280;10507;52.754;13.040;2023-06-04T12:50:25;100887.47;;;23.06;38.10
20696;BME280;10507;52.754;13.040;2023-06-04T12:52:53;100926.31;;;22.98;39.36